Marco Island, Florida
Current Conditions -  °F | °C
As of 11:55 AM on Friday 28 Nov 2014 (Local Time) from KMKY Reporting Station
Clear Clear  
Wind Chill: 63°   Ceiling: Unl
Heat Index: 63°   Visibility: 10mi
Dew Point: 43°   Wind: 13mph
Humidity: 48%   Direction: 40°NE
Pressure: 30.25"   Gusts: NA
Location:  25.97°N, 81.73°W
Report Text: KMKY 281655Z 04011KT 10SM CLR 17/06 A3025 RMK AO1
Loading
Personal Weather Stations






























Interactive Weather Map New forecast layout! Learn more

10-Day Weather Forecast

Advertisements
Track Severe Weather on mobile